Share

Jamestown, KS

Joe's Place (KKSCONCO1) Elev 1440 ft | 39.57 °N, 97.65 °W | Change Station

Current weather conditions updated 2 seconds ago

Clear
Clear
59.2 °F
Feels Like 59.2 °F
N
2.0
Wind Variable Wind from South
Gusts 0.0 mph
Sunrise 6:49 AM
Sunset 8:12 PM
Moon Waning Gibbous

Tomorrow is forecast to be Much Warmer than today.

Pressure 30.08 in
Visibility 10.0 miles
Clouds Clear
Dew Point 44 °F
Humidity 56%
Rainfall 0.00 in
Snow Depth Not available.
UV 0 out of 16
Pollen 10.80 out of 12
Air Quality Not available.
Flu Activity No Activity
METAR KCNK 190255Z AUTO 16008KT 10SM CLR 14/05 A3008 RMK AO2 SLP184 T01390050 53010

More Conditions Fewer Conditions

Pressure 30.08 in
Visibility 10.0 miles
Clouds Clear
Dew Point 44 °F
Humidity 56%
Rainfall 0.00 in
Snow Depth Not available.
UV 0 out of 16
Pollen 10.80 out of 12
Air Quality Not available.
Flu Activity No Activity
METAR KCNK 190255Z AUTO 16008KT 10SM CLR 14/05 A3008 RMK AO2 SLP184 T01390050 53010

More Conditions Fewer Conditions

10-Day Weather Forecast

Almanac

Astronomy

Apr. 18, 2014 Rise Set
Actual Time 6:49 AM CDT 8:12 PM CDT
Civil Twilight 6:21 AM CDT 8:40 PM CDT
Nautical Twilight 5:47 AM CDT 9:14 PM CDT
Astronomical Twilight 5:12 AM CDT 9:49 PM CDT
Moon 11:58 PM CDT (4/18) 9:13 AM CDT (4/18)
Length of Visible Light 14h 18m
Length of Day
13h 22m
Tomorrow will be 2m 26s longer.
Waning Gibbous, 83% of the Moon is Illuminated
Today
Waning Gibbous
Apr 22
Last Quarter
Apr 29
New
May 6
First Quarter
May 14
Full

Today's Extremes

State Highs State Lows

Community

  • Sunset Silhouettes
    Sunset Silhouettes
  • FL sunset Perico Isle
    FL sunset Perico Isle
  • Cloudy spring view
    Cloudy spring view
  • Old barn
    Old barn
  • What's for Lunch?
    What's for Lunch?

WunderPhotos

Upload Photos

1,702,624 photos uploaded!

WunderBlogs® & News

Nearby

Snow Depth

Station Depth Elevation
No new snow has been reported.

Coastal Water Temperatures

Place Temperature
No Stations Reporting

Earthquake Activity

City Distance Mag. Time & Date
No recent earthquake activity has been reported nearby.
Minimum magnitude displayed is 2.5.

Nearby Weather Stations

Station Location Temp. Dew Point Humidity Wind Precip. Elev Updated Type
Joe's Place, Concordia, KS 59.2 °F 44 °F 56% South  at  2.0 mph 0.00 in / hr 1440 ft 10:23 PM CDT Rapid Fire
Simpson KS, Beloit, KS 60.4 °F 50 °F 68% SSE  at  7.8 mph - / hr 1342 ft 10:16 PM CDT Normal
2 S of Pawnee, Courtland, KS 59.2 °F 43 °F 54% SSE  at  8.3 mph 0.00 in / hr 1565 ft 10:23 PM CDT Rapid Fire
Chancy's Pond, Delphos, KS 57.3 °F 43 °F 58% SSE  at  0.0 mph 0.00 in / hr 1375 ft 10:23 PM CDT Rapid Fire
Center Township, BELOIT, KS 57.5 °F 44 °F 61% ESE  at  6.0 mph 0.00 in / hr 1504 ft 10:22 PM CDT Normal

Show More Stations Show Fewer Stations

What do you think?

We're not finished. Please let us know what you like, what you don't like, and what you are still missing.